Time;durP1;ratioP1;P1;durP2;ratioP2;P2;SDS_P1;SDS_P2;PMS_P1;PMS_P2;Temp;Humidity;BMP_temperature;BMP_pressure;BME280_temperature;BME280_humidity;BME280_pressure;Samples;Min_cycle;Max_cycle;Signal;HPM_P1;HPM_P2
2021/04/13 00:01:20;;;;;;;2.37;1.77;;;;;;;5.64;71.18;99994.44;4274675;33;33558;-82
2021/04/13 00:04:05;;;;;;;3.47;2.25;;;;;;;5.46;71.41;99981.00;4277015;33;33641;-82
2021/04/13 00:06:49;;;;;;;2.33;2.00;;;;;;;5.81;70.88;99979.38;4277463;33;33497;-81
2021/04/13 00:09:32;;;;;;;2.75;2.20;;;;;;;5.38;72.25;99986.22;4270633;33;33684;-95
2021/04/13 00:12:29;;;;;;;1.85;1.67;;;;;;;5.54;71.62;99982.94;4282130;33;33804;-95
2021/04/13 00:15:18;;;;;;;2.12;1.73;;;;;;;5.58;71.40;99984.28;4265821;33;34627;-91
2021/04/13 00:17:58;;;;;;;3.30;2.17;;;;;;;5.42;71.96;99974.22;4244281;33;34766;-96
2021/04/13 00:20:41;;;;;;;2.03;1.60;;;;;;;5.23;73.10;99979.69;4276598;33;33673;-96
2021/04/13 00:23:14;;;;;;;1.67;1.58;;;;;;;5.52;71.70;99986.75;4294075;33;33458;-82
2021/04/13 00:26:07;;;;;;;2.22;1.85;;;;;;;5.20;72.16;99980.81;4257528;33;34507;-95
2021/04/13 00:28:45;;;;;;;2.25;1.67;;;;;;;5.13;72.74;99975.22;4268623;33;34195;-81
2021/04/13 00:31:39;;;;;;;2.67;1.87;;;;;;;5.13;72.51;99966.31;4267512;33;34293;-96
2021/04/13 00:34:20;;;;;;;1.85;1.30;;;;;;;5.03;73.05;99970.84;4297620;28;34482;-82
2021/04/13 00:37:24;;;;;;;1.90;1.60;;;;;;;4.98;73.33;99973.13;4277547;33;33136;-92
2021/04/13 00:40:25;;;;;;;1.62;1.52;;;;;;;4.95;73.22;99968.91;4266781;33;33011;-95
2021/04/13 00:43:03;;;;;;;1.27;1.20;;;;;;;4.88;72.93;99970.47;4260832;33;32729;-96
2021/04/13 00:45:45;;;;;;;2.72;2.35;;;;;;;4.76;74.05;99967.97;4254439;33;34349;-82
2021/04/13 00:48:23;;;;;;;2.90;1.58;;;;;;;4.87;73.81;99966.12;4278890;33;34485;-82
2021/04/13 00:51:17;;;;;;;2.45;1.62;;;;;;;4.94;73.65;99975.28;4275080;33;34696;-94
2021/04/13 00:53:59;;;;;;;1.83;1.50;;;;;;;5.12;72.68;99968.16;4269475;33;36583;-82
2021/04/13 00:56:32;;;;;;;1.30;1.20;;;;;;;5.16;72.70;99963.31;4272057;33;33111;-96
2021/04/13 00:59:18;;;;;;;1.60;1.40;;;;;;;5.29;72.08;99963.84;4272162;33;34029;-83
2021/04/13 01:01:57;;;;;;;1.83;1.70;;;;;;;5.16;72.48;99959.81;4258886;33;33449;-96
2021/04/13 01:05:02;;;;;;;2.05;1.85;;;;;;;5.05;72.75;99950.97;4278445;33;34673;-95
2021/04/13 01:07:48;;;;;;;2.62;1.40;;;;;;;4.92;73.68;99945.91;4264565;33;33479;-94
2021/04/13 01:10:34;;;;;;;1.62;1.52;;;;;;;5.02;72.86;99953.94;4251490;33;35038;-93
2021/04/13 01:13:11;;;;;;;1.98;1.37;;;;;;;5.25;72.17;99946.34;4265386;33;34239;-94
2021/04/13 01:16:14;;;;;;;1.52;1.33;;;;;;;5.20;72.22;99956.69;4245995;33;32113;-82
2021/04/13 01:18:51;;;;;;;2.22;1.50;;;;;;;5.06;73.01;99951.78;4272550;33;33146;-86
2021/04/13 01:21:39;;;;;;;1.70;1.00;;;;;;;5.17;72.43;99948.13;4250550;33;34819;-82
2021/04/13 01:24:26;;;;;;;1.80;1.20;;;;;;;5.19;71.78;99940.75;4268380;33;33794;-95
2021/04/13 01:27:19;;;;;;;1.95;1.48;;;;;;;5.19;71.98;99944.28;4255651;33;34827;-95
2021/04/13 01:29:57;;;;;;;1.52;1.35;;;;;;;5.03;72.41;99934.19;4240768;33;33108;-82
2021/04/13 01:32:30;;;;;;;1.25;1.10;;;;;;;5.37;71.58;99947.00;4257832;33;33291;-82
2021/04/13 01:35:09;;;;;;;2.17;1.37;;;;;;;4.99;71.77;99934.66;4264429;33;33472;-82
2021/04/13 01:38:07;;;;;;;1.77;1.60;;;;;;;4.93;72.39;99920.00;4256952;33;34629;-95
2021/04/13 01:43:45;;;;;;;1.35;1.02;;;;;;;4.96;72.07;99919.69;4257926;33;34510;-82
2021/04/13 01:46:19;;;;;;;2.45;1.48;;;;;;;4.89;72.59;99918.59;4273168;33;35454;-93
2021/04/13 01:48:53;;;;;;;1.42;1.27;;;;;;;5.06;72.14;99925.87;4250478;33;34384;-82
2021/04/13 01:51:45;;;;;;;1.50;1.40;;;;;;;5.30;70.86;99933.37;4254319;33;34071;-95
2021/04/13 01:54:23;;;;;;;1.33;1.05;;;;;;;5.33;70.94;99931.38;4262988;33;33738;-96
2021/04/13 01:57:18;;;;;;;1.95;1.40;;;;;;;5.05;71.31;99923.34;4251657;33;32457;-96
2021/04/13 02:00:20;;;;;;;1.62;1.40;;;;;;;5.32;70.61;99919.81;4281217;33;33930;-91
2021/04/13 02:03:28;;;;;;;1.45;1.30;;;;;;;5.36;70.96;99913.19;4229717;33;32504;-83
2021/04/13 02:06:11;;;;;;;3.72;1.30;;;;;;;5.39;70.59;99915.56;4235778;33;33302;-83
2021/04/13 02:08:53;;;;;;;1.10;1.00;;;;;;;5.26;70.65;99915.06;4248345;33;34027;-94
2021/04/13 02:11:28;;;;;;;1.55;1.35;;;;;;;4.97;71.74;99924.09;4248821;33;33372;-86
2021/04/13 02:14:06;;;;;;;2.12;1.75;;;;;;;5.11;71.45;99917.37;4237984;33;35325;-83
2021/04/13 02:17:03;;;;;;;1.40;1.30;;;;;;;4.98;72.20;99917.72;4254968;33;34377;-94
2021/04/13 02:20:04;;;;;;;1.33;1.23;;;;;;;5.33;70.61;99923.34;4246670;33;33417;-96
2021/04/13 02:22:45;;;;;;;1.75;1.50;;;;;;;5.10;71.15;99931.75;4233819;33;35003;-90
2021/04/13 02:25:27;;;;;;;2.17;1.50;;;;;;;5.17;70.71;99938.22;4238653;33;33261;-95
2021/04/13 02:28:01;;;;;;;1.35;1.25;;;;;;;5.48;69.43;99944.12;4236885;33;33945;-96
2021/04/13 02:30:49;;;;;;;1.35;1.25;;;;;;;5.23;70.44;99943.00;4240104;33;33263;-83
2021/04/13 02:33:28;;;;;;;1.55;1.20;;;;;;;5.49;69.92;99953.03;4254703;33;33710;-96
2021/04/13 02:36:11;;;;;;;1.25;1.15;;;;;;;5.47;69.52;99944.28;4263281;33;33702;-95
2021/04/13 02:39:06;;;;;;;2.37;1.60;;;;;;;5.52;69.41;99917.03;4243114;33;33151;-94
2021/04/13 02:41:48;;;;;;;2.58;1.87;;;;;;;5.07;71.12;99910.63;4241245;33;32462;-83
2021/04/13 02:44:26;;;;;;;1.90;1.30;;;;;;;5.07;70.88;99919.50;4263705;33;33925;-96
2021/04/13 02:47:02;;;;;;;1.95;1.75;;;;;;;5.08;70.84;99913.16;4264221;33;33709;-83
2021/04/13 02:49:40;;;;;;;1.30;1.20;;;;;;;4.99;71.35;99915.91;4265336;33;34694;-96
2021/04/13 02:52:22;;;;;;;1.55;1.37;;;;;;;4.97;70.73;99915.19;4267322;33;34659;-93
2021/04/13 02:55:02;;;;;;;2.67;1.95;;;;;;;4.71;71.99;99911.31;4255025;33;33295;-94
2021/04/13 02:57:39;;;;;;;1.23;1.10;;;;;;;4.87;71.79;99909.87;4241894;33;34278;-83
2021/04/13 03:00:35;;;;;;;1.60;1.35;;;;;;;4.82;71.38;99909.44;4254941;33;35150;-94
2021/04/13 03:03:13;;;;;;;2.20;1.83;;;;;;;4.93;71.60;99898.56;4280317;33;34611;-96
2021/04/13 03:05:52;;;;;;;1.73;1.60;;;;;;;4.92;71.15;99902.22;4278248;33;34333;-83
2021/04/13 03:08:28;;;;;;;1.85;1.60;;;;;;;5.05;71.29;99891.19;4276158;33;33861;-95
2021/04/13 03:11:25;;;;;;;3.25;1.62;;;;;;;4.88;71.77;99890.12;4268554;33;33147;-83
2021/04/13 03:13:58;;;;;;;3.47;1.50;;;;;;;5.14;70.40;99884.94;4268491;33;34690;-85
2021/04/13 03:16:36;;;;;;;1.73;1.58;;;;;;;5.08;70.37;99880.19;4268626;33;33597;-95
2021/04/13 03:19:14;;;;;;;2.17;1.62;;;;;;;5.35;69.47;99876.63;4264535;33;34800;-83
2021/04/13 03:21:49;;;;;;;1.83;1.50;;;;;;;5.10;70.04;99881.72;4245706;33;34178;-96
2021/04/13 03:24:33;;;;;;;1.65;1.40;;;;;;;4.99;71.17;99879.22;4246104;33;34545;-95
2021/04/13 03:27:30;;;;;;;2.08;1.40;;;;;;;5.06;71.00;99879.47;4216946;34;34240;-83
2021/04/13 03:30:23;;;;;;;3.55;1.52;;;;;;;5.02;70.66;99876.25;4225817;33;32239;-96
2021/04/13 03:33:03;;;;;;;1.77;1.50;;;;;;;4.95;70.89;99876.00;4197776;34;33996;-96
2021/04/13 03:35:35;;;;;;;1.77;1.27;;;;;;;5.01;70.71;99868.34;4213743;34;33862;-85
2021/04/13 03:38:14;;;;;;;1.80;1.45;;;;;;;4.89;71.14;99871.22;4220610;33;34033;-95
2021/04/13 03:40:49;;;;;;;2.08;1.30;;;;;;;4.84;71.26;99872.69;4233950;33;33035;-93
2021/04/13 03:43:24;;;;;;;2.28;1.55;;;;;;;4.53;72.03;99870.22;4198262;33;34247;-82
2021/04/13 03:46:02;;;;;;;1.65;1.45;;;;;;;4.81;71.51;99863.09;4201680;33;34947;-96
2021/04/13 03:48:47;;;;;;;1.70;1.27;;;;;;;4.77;71.59;99859.00;4222164;33;34707;-92
2021/04/13 03:51:40;;;;;;;4.22;1.37;;;;;;;4.86;71.18;99865.31;4220610;33;34535;-96
2021/04/13 03:54:37;;;;;;;2.50;1.80;;;;;;;4.96;71.24;99866.13;4290345;28;33895;31
2021/04/13 04:00:27;;;;;;;2.47;1.87;;;;;;;5.09;70.88;99877.34;4361372;28;33171;-84
2021/04/13 04:03:11;;;;;;;1.73;1.40;;;;;;;4.94;70.66;99881.50;4581595;28;33219;-86
2021/04/13 04:05:55;;;;;;;1.67;1.45;;;;;;;5.18;70.68;99874.75;4354597;28;32230;-84
2021/04/13 04:11:52;;;;;;;2.20;1.77;;;;;;;5.35;69.07;99871.28;4568031;28;20535;31
2021/04/13 04:14:33;;;;;;;1.87;1.70;;;;;;;4.96;70.00;99879.53;4321387;28;33205;-96
2021/04/13 04:17:12;;;;;;;3.00;1.60;;;;;;;4.78;70.90;99885.66;4263133;33;36441;-84
2021/04/13 04:20:08;;;;;;;2.25;1.70;;;;;;;4.73;70.93;99876.34;4265137;33;33692;-96
2021/04/13 04:22:52;;;;;;;1.10;1.00;;;;;;;4.66;71.90;99860.03;4268577;28;33076;-89
2021/04/13 04:25:41;;;;;;;2.10;1.50;;;;;;;4.78;70.82;99882.97;4275780;33;35103;-90
2021/04/13 04:28:17;;;;;;;2.45;1.70;;;;;;;4.87;70.80;99880.41;4273048;33;34425;-95
2021/04/13 04:30:50;;;;;;;2.10;1.58;;;;;;;4.73;70.89;99871.87;4266080;33;34150;-95
2021/04/13 04:33:38;;;;;;;1.40;1.27;;;;;;;4.81;70.81;99871.13;4251642;33;35408;-84
2021/04/13 04:36:31;;;;;;;1.98;1.20;;;;;;;4.91;70.51;99857.69;4301866;28;33914;-96
2021/04/13 04:39:24;;;;;;;3.12;1.73;;;;;;;4.87;70.37;99875.88;4275816;33;36171;-83
2021/04/13 04:45:19;;;;;;;2.20;1.48;;;;;;;5.16;69.86;99872.22;4334816;28;34178;-84
2021/04/13 04:47:57;;;;;;;1.70;1.60;;;;;;;5.29;68.75;99877.25;4235300;33;32829;-87
2021/04/13 04:50:40;;;;;;;0.98;0.90;;;;;;;5.24;69.24;99876.81;4236859;33;34527;-91
2021/04/13 04:53:22;;;;;;;1.52;1.17;;;;;;;5.32;68.90;99873.44;4250247;33;34249;-94
2021/04/13 04:55:56;;;;;;;1.50;1.20;;;;;;;5.27;68.18;99877.38;4290989;28;33495;-83
2021/04/13 04:58:33;;;;;;;2.87;1.70;;;;;;;5.66;67.96;99890.53;4368050;28;33102;-96
2021/04/13 05:01:05;;;;;;;2.30;1.40;;;;;;;5.65;67.52;99896.06;4337740;28;34272;-85
2021/04/13 05:04:00;;;;;;;1.42;1.05;;;;;;;5.58;68.16;99903.84;4273387;28;32394;-89
2021/04/13 05:06:36;;;;;;;1.25;1.15;;;;;;;5.62;67.93;99907.91;4289887;33;33257;-87
2021/04/13 05:09:09;;;;;;;1.67;1.17;;;;;;;5.57;67.54;99904.00;4271963;33;34053;-95
2021/04/13 05:11:46;;;;;;;1.20;1.10;;;;;;;5.56;67.77;99897.81;4265583;33;32386;-96
2021/04/13 05:14:23;;;;;;;1.55;1.20;;;;;;;5.60;68.09;99879.59;4266785;33;33488;-96
2021/04/13 05:16:55;;;;;;;1.12;0.95;;;;;;;5.52;67.77;99885.69;4251990;33;34589;-95
2021/04/13 05:19:28;;;;;;;3.58;1.70;;;;;;;5.71;66.58;99890.09;4263282;33;33339;-84
2021/04/13 05:22:00;;;;;;;1.92;1.77;;;;;;;5.30;68.33;99886.97;4260853;33;34199;-84
2021/04/13 05:24:33;;;;;;;2.65;1.65;;;;;;;5.45;67.64;99881.94;4244777;28;33813;-84
2021/04/13 05:27:06;;;;;;;2.00;1.35;;;;;;;5.70;67.48;99874.97;4446145;28;34951;-83
2021/04/13 05:29:39;;;;;;;1.77;1.40;;;;;;;5.71;67.33;99882.03;4247349;33;31788;-87
2021/04/13 05:32:27;;;;;;;1.85;1.35;;;;;;;5.63;67.86;99885.50;4242030;33;33335;-96
2021/04/13 05:35:38;;;;;;;1.95;1.40;;;;;;;5.88;66.57;99903.66;4677025;28;32601;31
2021/04/13 05:38:42;;;;;;;1.50;1.08;;;;;;;5.89;66.73;99900.81;3737048;28;20103;-94
2021/04/13 05:41:19;;;;;;;1.50;1.10;;;;;;;5.67;67.46;99907.47;4270526;33;34049;-84
2021/04/13 05:43:51;;;;;;;2.28;1.45;;;;;;;5.81;67.52;99900.75;4261610;33;34186;-86
2021/04/13 05:46:45;;;;;;;1.75;1.35;;;;;;;5.79;67.61;99911.63;4709444;28;34741;-86
2021/04/13 05:53:13;;;;;;;3.10;1.05;;;;;;;6.18;66.72;99915.84;4667768;28;158862;-95
2021/04/13 05:56:27;;;;;;;1.60;1.50;;;;;;;5.80;66.85;99891.84;4159497;34;32408;-91
2021/04/13 05:59:07;;;;;;;2.10;1.65;;;;;;;6.24;67.21;99887.56;4151504;34;34299;-83
2021/04/13 06:01:48;;;;;;;1.50;1.20;;;;;;;6.01;67.48;99885.38;4135616;34;33360;-84
2021/04/13 06:04:21;;;;;;;1.08;0.98;;;;;;;5.92;69.11;99888.94;4135891;34;32687;-83
2021/04/13 06:06:53;;;;;;;1.50;1.40;;;;;;;5.93;69.25;99879.91;4152737;34;33994;-83
2021/04/13 06:09:25;;;;;;;1.60;1.40;;;;;;;5.97;69.29;99884.84;4154929;34;34496;-83
2021/04/13 06:11:59;;;;;;;2.85;1.30;;;;;;;5.69;69.59;99876.00;4158217;34;33480;-89
2021/04/13 06:14:31;;;;;;;1.75;1.50;;;;;;;5.94;69.88;99878.87;4167463;34;33696;-84
2021/04/13 06:17:06;;;;;;;4.25;1.48;;;;;;;6.35;69.35;99872.06;4628905;28;35128;-96
2021/04/13 06:19:55;;;;;;;2.53;1.60;;;;;;;6.18;69.58;99876.47;4513458;28;34495;-96
2021/04/13 06:26:26;;;;;;;1.33;1.15;;;;;;;5.82;69.98;99884.50;1877648;28;32823;-93
2021/04/13 06:29:10;;;;;;;2.35;1.37;;;;;;;5.93;69.05;99870.00;4609921;28;33085;-96
2021/04/13 06:32:08;;;;;;;1.62;1.20;;;;;;;5.76;69.69;99855.63;4374975;28;33701;31
2021/04/13 06:35:00;;;;;;;1.37;1.15;;;;;;;5.90;68.76;99866.78;4228009;28;34484;-96
2021/04/13 06:38:02;;;;;;;2.85;1.48;;;;;;;5.91;69.26;99871.16;4183105;34;34369;-95
2021/04/13 06:41:01;;;;;;;3.33;1.83;;;;;;;6.25;68.31;99867.78;4236319;28;36115;-94
2021/04/13 06:44:12;;;;;;;1.95;1.20;;;;;;;6.23;67.82;99867.06;4295636;28;33216;31
2021/04/13 06:46:52;;;;;;;1.85;1.37;;;;;;;5.98;67.30;99866.91;4363058;28;34324;-83
2021/04/13 06:49:52;;;;;;;4.22;2.00;;;;;;;6.26;65.86;99882.91;4231913;33;33082;-90
2021/04/13 06:56:47;;;;;;;1.83;1.60;;;;;;;6.03;67.36;99861.91;4320006;28;34514;-96
2021/04/13 06:59:51;;;;;;;4.28;1.30;;;;;;;5.77;68.02;99876.06;4294478;28;33549;-96
2021/04/13 07:02:46;;;;;;;2.50;1.60;;;;;;;5.92;67.64;99876.38;4288357;28;36066;-96
2021/04/13 07:05:38;;;;;;;1.90;1.40;;;;;;;5.94;68.34;99866.34;4366406;28;33336;31
2021/04/13 07:09:22;;;;;;;1.87;1.17;;;;;;;6.39;65.92;99879.78;4467079;28;20167;31
2021/04/13 07:16:21;;;;;;;4.30;1.37;;;;;;;6.42;65.55;99880.34;4724451;29;21266;-96
2021/04/13 07:19:35;;;;;;;1.58;1.40;;;;;;;6.26;65.68;99869.47;4397203;28;20106;-96
2021/04/13 07:22:54;;;;;;;2.40;1.60;;;;;;;6.11;65.94;99867.34;4804657;29;33715;31
2021/04/13 07:26:01;;;;;;;2.05;1.48;;;;;;;6.37;65.01;99859.28;4183915;34;33486;-96
2021/04/13 07:28:55;;;;;;;1.77;1.45;;;;;;;5.89;68.45;99857.06;4190904;34;33162;-90
2021/04/13 07:31:36;;;;;;;2.00;1.57;;;;;;;5.96;67.50;99867.03;4188346;34;33500;-83
2021/04/13 07:34:10;;;;;;;2.20;1.40;;;;;;;6.14;68.06;99861.66;4168232;34;33649;-96
2021/04/13 07:37:03;;;;;;;1.90;1.27;;;;;;;6.06;66.32;99875.00;4225452;28;34439;-88
2021/04/13 07:39:38;;;;;;;2.85;1.62;;;;;;;6.13;68.09;99878.75;4203515;34;35011;-96
2021/04/13 07:42:28;;;;;;;2.33;1.50;;;;;;;6.25;65.48;99868.62;4218123;34;34763;-95
2021/04/13 07:45:27;;;;;;;2.47;1.70;;;;;;;6.24;66.77;99869.59;4201020;34;33807;-95
2021/04/13 07:48:19;;;;;;;3.37;1.70;;;;;;;6.27;66.55;99879.19;4189881;34;35084;-94
2021/04/13 07:51:20;;;;;;;2.80;1.75;;;;;;;6.51;65.03;99875.84;4200447;34;35024;-83
2021/04/13 07:54:38;;;;;;;3.10;1.80;;;;;;;6.64;65.72;99875.44;4212611;33;33644;-84
2021/04/13 07:57:40;;;;;;;1.50;1.40;;;;;;;6.71;65.24;99871.09;4161214;34;33646;-83
2021/04/13 08:00:19;;;;;;;2.45;1.60;;;;;;;6.64;64.37;99881.63;4170805;34;34396;-90
2021/04/13 08:03:13;;;;;;;1.80;1.30;;;;;;;6.76;64.99;99879.50;4206140;34;33053;-91
2021/04/13 08:05:49;;;;;;;2.45;1.90;;;;;;;6.48;64.78;99868.09;4202348;34;34672;-90
2021/04/13 08:08:44;;;;;;;2.35;1.75;;;;;;;6.49;65.29;99880.53;4175831;34;34763;-84
2021/04/13 08:11:22;;;;;;;2.28;1.60;;;;;;;6.46;64.89;99870.09;4186952;34;33827;-83
2021/04/13 08:13:56;;;;;;;2.85;1.48;;;;;;;6.59;65.15;99864.31;4200799;34;33166;-84
2021/04/13 08:16:38;;;;;;;2.12;1.77;;;;;;;6.34;65.95;99861.47;4200404;34;33692;-84
2021/04/13 08:19:23;;;;;;;3.03;2.17;;;;;;;6.32;65.93;99860.78;4210719;34;35914;-89
2021/04/13 08:22:30;;;;;;;2.90;1.90;;;;;;;6.30;66.47;99863.63;4200190;34;33689;-85
2021/04/13 08:25:05;;;;;;;3.08;1.67;;;;;;;6.35;66.77;99866.69;4173936;34;32736;-87
2021/04/13 08:27:50;;;;;;;2.75;1.77;;;;;;;6.56;65.96;99864.63;4199741;34;33640;-87
2021/04/13 08:30:51;;;;;;;3.30;1.70;;;;;;;6.67;66.98;99869.72;4193463;34;33813;-87
2021/04/13 08:33:34;;;;;;;2.83;1.58;;;;;;;6.30;67.83;99870.81;4199363;34;34315;-85
2021/04/13 08:36:19;;;;;;;2.65;1.52;;;;;;;6.08;68.37;99867.66;4203599;33;33326;-86
2021/04/13 08:39:18;;;;;;;3.08;1.73;;;;;;;6.29;67.05;99870.00;4209018;34;33537;-85
2021/04/13 08:42:48;;;;;;;3.10;2.30;;;;;;;6.32;67.11;99877.72;4211740;33;36295;-89
2021/04/13 08:45:40;;;;;;;3.30;1.80;;;;;;;6.18;68.18;99889.03;4177072;34;33615;-86
2021/04/13 08:49:10;;;;;;;2.40;1.95;;;;;;;6.32;67.32;99898.38;4178380;34;33090;-85
2021/04/13 08:52:09;;;;;;;3.25;2.22;;;;;;;6.66;67.85;99886.84;4187857;34;33831;-91
2021/04/13 08:55:11;;;;;;;3.60;2.00;;;;;;;6.69;67.80;99876.63;4163882;34;33652;-96
2021/04/13 08:58:01;;;;;;;2.28;1.90;;;;;;;7.05;67.29;99881.00;4215237;34;33639;-85
2021/04/13 09:00:39;;;;;;;3.03;2.25;;;;;;;6.98;67.21;99885.34;4208285;34;33203;-86
2021/04/13 09:03:15;;;;;;;2.47;2.15;;;;;;;7.21;66.57;99875.69;4213932;34;33314;-88
2021/04/13 09:06:12;;;;;;;3.08;1.95;;;;;;;7.17;67.31;99884.25;4217495;33;33547;-86
2021/04/13 09:08:52;;;;;;;3.15;2.05;;;;;;;7.02;66.57;99882.19;4210275;34;33317;-94
2021/04/13 09:11:34;;;;;;;2.28;1.70;;;;;;;7.07;67.32;99884.38;4210267;34;33071;-86
2021/04/13 09:14:36;;;;;;;2.50;1.75;;;;;;;7.25;65.88;99886.97;4210404;34;34376;-92
2021/04/13 09:17:21;;;;;;;2.15;1.90;;;;;;;7.14;65.21;99866.63;4235268;33;35105;-94
2021/04/13 09:20:34;;;;;;;2.60;2.00;;;;;;;7.15;64.62;99876.34;4207427;34;34222;-87
2021/04/13 09:23:35;;;;;;;4.65;2.35;;;;;;;7.15;65.47;99865.59;4236321;33;36547;-87
2021/04/13 09:26:23;;;;;;;5.10;2.40;;;;;;;7.34;66.35;99859.09;4220634;33;33396;-92
2021/04/13 09:28:59;;;;;;;4.53;3.53;;;;;;;7.17;67.72;99858.22;4235924;33;34766;-89
2021/04/13 09:31:45;;;;;;;2.40;1.95;;;;;;;6.95;68.25;99866.88;4210296;34;35148;-85
2021/04/13 09:34:36;;;;;;;3.90;2.83;;;;;;;6.83;68.57;99859.06;4237559;33;32271;-86
2021/04/13 09:37:24;;;;;;;3.65;3.00;;;;;;;6.48;70.98;99868.09;4211279;33;33937;-88
2021/04/13 09:40:19;;;;;;;3.70;2.55;;;;;;;6.66;70.57;99859.97;4212628;33;32633;-88
2021/04/13 09:43:01;;;;;;;3.90;2.83;;;;;;;7.12;68.02;99868.59;4223388;33;32749;-85
2021/04/13 09:45:50;;;;;;;3.33;2.75;;;;;;;6.72;70.49;99862.88;4226612;33;33743;-86
2021/04/13 09:49:00;;;;;;;5.07;3.35;;;;;;;6.71;69.69;99860.38;4212023;34;33508;-86
2021/04/13 09:52:06;;;;;;;4.43;3.35;;;;;;;6.91;70.51;99858.28;4215360;33;35155;-86
2021/04/13 09:54:42;;;;;;;4.47;3.45;;;;;;;6.85;70.22;99853.53;4213172;34;35230;-87
2021/04/13 09:57:23;;;;;;;7.32;3.90;;;;;;;6.83;70.51;99859.06;4212275;34;33242;-86
2021/04/13 10:00:37;;;;;;;5.50;4.00;;;;;;;6.34;70.21;99845.34;4225530;33;33433;-85
2021/04/13 10:03:47;;;;;;;5.87;3.65;;;;;;;6.42;71.18;99832.00;4229985;33;33751;-83
2021/04/13 10:06:27;;;;;;;8.30;3.92;;;;;;;6.57;72.21;99823.34;4216369;33;34774;-89
2021/04/13 10:09:22;;;;;;;5.43;4.18;;;;;;;6.70;73.02;99829.12;4215607;34;33637;-84
2021/04/13 10:12:13;;;;;;;7.43;3.22;;;;;;;6.34;72.01;99823.88;4227422;33;33520;-95
2021/04/13 10:15:14;;;;;;;8.52;4.78;;;;;;;6.32;71.37;99820.53;4215502;34;36664;-93
2021/04/13 10:18:23;;;;;;;6.05;3.95;;;;;;;6.24;73.56;99823.97;4213772;34;32651;-91
2021/04/13 10:21:53;;;;;;;7.32;3.30;;;;;;;6.35;72.90;99817.53;4234535;33;33602;-96
2021/04/13 10:25:04;;;;;;;5.93;4.20;;;;;;;6.00;72.72;99816.59;4213473;34;32192;-96
2021/04/13 10:28:26;;;;;;;5.90;3.97;;;;;;;6.01;74.38;99819.13;4200553;34;33293;-85
2021/04/13 10:31:31;;;;;;;7.12;5.20;;;;;;;6.14;73.66;99823.25;4221155;34;33719;-96
2021/04/13 10:34:36;;;;;;;8.38;5.47;;;;;;;5.72;76.71;99813.13;4220150;33;33226;-86
2021/04/13 10:37:37;;;;;;;6.18;4.35;;;;;;;6.16;74.30;99811.34;4219792;33;33822;-94
2021/04/13 10:40:17;;;;;;;7.25;4.90;;;;;;;6.06;75.05;99813.28;4222872;33;32775;-86
2021/04/13 10:43:33;;;;;;;6.68;4.80;;;;;;;6.43;74.00;99804.13;4220551;33;36502;-86
2021/04/13 10:46:30;;;;;;;7.50;5.10;;;;;;;6.04;74.13;99798.34;4219129;33;33935;-92
2021/04/13 10:49:38;;;;;;;8.32;6.00;;;;;;;5.94;74.98;99801.09;4212884;34;32671;-85
2021/04/13 10:52:24;;;;;;;11.20;5.32;;;;;;;5.94;75.65;99799.28;4210178;33;34515;-84
2021/04/13 10:55:18;;;;;;;7.62;5.22;;;;;;;6.10;74.71;99803.94;4210971;33;33752;-89
2021/04/13 10:58:07;;;;;;;7.57;5.43;;;;;;;5.57;76.44;99794.06;4215201;33;33239;-83
2021/04/13 11:00:42;;;;;;;8.85;5.80;;;;;;;5.63;77.08;99788.13;4217664;33;34751;-86
2021/04/13 11:03:52;;;;;;;10.55;6.07;;;;;;;5.73;76.99;99796.91;4225674;33;33653;-84
2021/04/13 11:07:03;;;;;;;10.25;5.87;;;;;;;5.89;76.38;99800.72;4227853;33;36372;-84
2021/04/13 11:09:43;;;;;;;6.93;5.07;;;;;;;5.60;78.19;99804.50;4212282;34;31924;-84
2021/04/13 11:13:12;;;;;;;8.27;6.15;;;;;;;5.60;77.76;99809.87;4176571;33;33792;-85
2021/04/13 11:15:58;;;;;;;8.68;5.90;;;;;;;5.80;76.82;99803.31;4236174;33;34484;-96
2021/04/13 11:19:19;;;;;;;6.53;5.28;;;;;;;5.68;77.40;99799.22;4234009;33;34788;-96
2021/04/13 11:22:08;;;;;;;7.75;5.78;;;;;;;5.70;76.29;99804.41;4307085;28;31968;-96
2021/04/13 11:25:13;;;;;;;10.30;6.35;;;;;;;5.52;77.55;99807.09;4405481;28;33979;-96
2021/04/13 11:28:18;;;;;;;8.32;6.12;;;;;;;5.42;78.62;99799.12;4371208;28;34943;-94
2021/04/13 11:31:42;;;;;;;7.28;6.15;;;;;;;5.40;78.31;99807.31;4338643;28;22287;-96
2021/04/13 11:34:47;;;;;;;8.55;5.82;;;;;;;5.46;78.76;99798.69;4395470;28;33399;-96
2021/04/13 11:38:19;;;;;;;10.88;7.25;;;;;;;5.37;78.67;99791.53;4532963;28;20091;-94
2021/04/13 11:44:49;;;;;;;9.68;6.93;;;;;;;5.63;78.86;99794.31;4420987;28;34759;31
2021/04/13 11:48:25;;;;;;;7.72;5.53;;;;;;;5.73;78.08;99779.97;4212152;33;20179;-96
2021/04/13 11:51:27;;;;;;;8.90;6.10;;;;;;;5.52;78.33;99775.75;4329564;28;35114;31
2021/04/13 12:01:17;;;;;;;10.50;5.85;;;;;;;5.64;78.49;99789.78;2072995;28;32831;-93
2021/04/13 12:04:24;;;;;;;9.18;5.47;;;;;;;5.54;78.95;99802.41;4221921;28;31739;-96
2021/04/13 12:10:02;;;;;;;9.25;6.65;;;;;;;5.82;78.03;99798.66;4188179;34;33187;-90
2021/04/13 12:12:34;;;;;;;9.23;6.72;;;;;;;5.61;78.82;99795.44;4155556;34;32409;-87
2021/04/13 12:15:10;;;;;;;9.15;6.10;;;;;;;5.99;77.35;99793.47;4155717;34;33895;-86
2021/04/13 12:17:57;;;;;;;9.82;6.70;;;;;;;5.34;79.41;99782.97;4166992;34;33992;-85
2021/04/13 12:20:31;;;;;;;11.68;8.63;;;;;;;5.72;78.41;99779.13;4148149;34;34692;-85
2021/04/13 12:23:06;;;;;;;9.65;7.32;;;;;;;5.72;79.17;99775.59;4177778;34;33180;-85
2021/04/13 12:25:52;;;;;;;9.88;7.62;;;;;;;5.90;78.33;99763.00;4188303;34;33550;-85
2021/04/13 12:28:30;;;;;;;9.98;7.87;;;;;;;6.02;78.52;99769.00;4199918;34;33820;-90
2021/04/13 12:31:25;;;;;;;9.57;7.03;;;;;;;5.89;78.64;99771.22;4199428;34;34508;-84
2021/04/13 12:34:01;;;;;;;9.88;7.93;;;;;;;5.82;78.25;99771.84;4181314;34;33769;-84
2021/04/13 12:36:46;;;;;;;13.75;7.85;;;;;;;5.74;79.64;99766.41;4204386;34;33592;-84
2021/04/13 12:39:49;;;;;;;12.30;7.20;;;;;;;5.96;78.40;99765.06;4184719;34;34285;-85
2021/04/13 12:42:32;;;;;;;11.93;7.55;;;;;;;5.68;79.65;99766.19;4182755;34;33957;-86
2021/04/13 12:45:23;;;;;;;10.23;8.02;;;;;;;6.21;77.51;99759.03;4176136;34;34243;-85
2021/04/13 12:48:09;;;;;;;8.48;7.05;;;;;;;5.92;78.73;99752.13;4188202;34;33165;-84
2021/04/13 12:50:59;;;;;;;10.93;8.13;;;;;;;6.02;78.30;99750.22;4179292;34;34600;-90
2021/04/13 12:53:32;;;;;;;9.00;6.37;;;;;;;6.11;78.03;99735.84;4198192;34;33798;-85
2021/04/13 12:56:13;;;;;;;9.57;7.18;;;;;;;6.05;77.36;99728.44;4211507;34;32983;-84
2021/04/13 12:58:46;;;;;;;9.98;6.80;;;;;;;6.10;77.32;99736.84;4177995;34;33386;-85
2021/04/13 13:01:53;;;;;;;10.77;7.30;;;;;;;6.02;78.31;99736.81;4194411;34;34096;-92
2021/04/13 13:04:52;;;;;;;8.25;7.07;;;;;;;5.92;78.23;99727.97;4380437;28;33267;-96
2021/04/13 13:07:55;;;;;;;10.80;8.48;;;;;;;5.92;78.90;99733.34;4206168;34;31445;-96
2021/04/13 13:11:07;;;;;;;8.05;6.62;;;;;;;6.01;77.38;99724.38;4185504;34;34710;-96
2021/04/13 13:13:52;;;;;;;9.90;6.60;;;;;;;6.01;78.14;99727.06;4198952;34;34923;-96
2021/04/13 13:16:32;;;;;;;8.35;6.68;;;;;;;5.95;78.13;99722.28;4184193;34;33867;-96
2021/04/13 13:19:09;;;;;;;7.87;6.43;;;;;;;5.84;78.85;99721.56;4175013;34;33963;-96
2021/04/13 13:21:54;;;;;;;9.52;6.18;;;;;;;5.86;78.37;99717.88;4188285;34;33292;-96
2021/04/13 13:24:33;;;;;;;7.47;6.20;;;;;;;5.62;78.97;99722.06;4246773;28;36637;-96
2021/04/13 13:27:17;;;;;;;9.18;6.68;;;;;;;5.72;78.12;99717.47;4223205;29;32497;-96
2021/04/13 13:29:54;;;;;;;8.07;6.45;;;;;;;5.51;79.10;99715.12;4217756;33;34416;-96
2021/04/13 13:32:30;;;;;;;7.82;5.68;;;;;;;5.48;79.62;99718.13;4226599;28;33947;-91
2021/04/13 13:35:09;;;;;;;;;;;;;;;5.52;78.71;99708.75;4213169;33;34855;-84
2021/04/13 13:37:49;;;;;;;7.85;5.65;;;;;;;5.33;78.97;99712.47;4222196;33;34090;-85
2021/04/13 13:40:35;;;;;;;5.55;4.50;;;;;;;5.42;79.32;99710.66;4201034;33;34168;-87
2021/04/13 13:43:16;;;;;;;8.52;6.05;;;;;;;5.48;78.96;99721.63;4209030;33;34288;-96
2021/04/13 13:45:49;;;;;;;9.05;6.85;;;;;;;5.43;79.26;99720.41;4197803;34;33531;-85
2021/04/13 13:48:21;;;;;;;9.13;5.50;;;;;;;5.56;79.09;99711.97;4205039;33;35546;-84
2021/04/13 13:51:10;;;;;;;10.73;5.35;;;;;;;5.36;79.07;99711.28;4217550;33;33390;-88
2021/04/13 13:53:56;;;;;;;10.07;5.97;;;;;;;5.28;80.13;99726.31;4210426;33;34810;-85
2021/04/13 13:56:34;;;;;;;8.13;5.57;;;;;;;5.22;79.60;99702.78;4211080;33;35232;-84
2021/04/13 13:59:32;;;;;;;8.70;5.80;;;;;;;5.51;79.19;99711.56;4214821;34;33586;-91
2021/04/13 14:02:20;;;;;;;7.22;6.10;;;;;;;5.29;79.87;99695.00;4210520;33;33070;-85
2021/04/13 14:05:08;;;;;;;8.45;5.82;;;;;;;5.59;79.44;99717.03;4206245;34;33428;-92